createdAt,value
2019-04-07T00:00:16.535Z,6.10
2019-04-07T00:05:12.374Z,6.00
2019-04-07T00:10:03.356Z,6.00
2019-04-07T00:14:56.241Z,5.90
2019-04-07T00:19:50.616Z,5.80
2019-04-07T00:24:43.019Z,5.80
2019-04-07T00:29:37.847Z,5.80
2019-04-07T00:34:31.087Z,5.80
2019-04-07T00:39:23.927Z,5.80
2019-04-07T00:44:16.792Z,5.60
2019-04-07T00:49:10.339Z,5.60
2019-04-07T00:54:02.997Z,5.60
2019-04-07T00:58:55.605Z,5.50
2019-04-07T01:03:48.162Z,5.40
2019-04-07T01:08:40.697Z,5.40
2019-04-07T01:13:34.024Z,5.30
2019-04-07T01:18:29.609Z,5.30
2019-04-07T01:23:22.373Z,5.30
2019-04-07T01:28:14.948Z,5.20
2019-04-07T01:33:07.637Z,5.10
2019-04-07T01:38:00.303Z,5.10
2019-04-07T01:47:50.964Z,5.00
2019-04-07T01:52:48.403Z,5.00
2019-04-07T01:57:45.377Z,4.90
2019-04-07T02:02:39.273Z,4.80
2019-04-07T02:07:33.806Z,4.80
2019-04-07T02:12:40.204Z,4.80
2019-04-07T02:17:40.639Z,4.60
2019-04-07T02:22:43.536Z,4.50
2019-04-07T02:27:43.577Z,4.50
2019-04-07T02:32:47.091Z,4.50
2019-04-07T02:37:41.329Z,4.50
2019-04-07T02:42:47.106Z,4.50
2019-04-07T02:47:57.949Z,4.40
2019-04-07T02:57:43.147Z,4.30
2019-04-07T03:02:41.108Z,4.20
2019-04-07T03:07:39.010Z,4.10
2019-04-07T03:12:33.653Z,4.20
2019-04-07T03:17:31.654Z,4.20
2019-04-07T03:22:44.763Z,4.10
2019-04-07T03:27:38.890Z,3.90
2019-04-07T03:32:54.103Z,3.90
2019-04-07T03:37:57.183Z,3.80
2019-04-07T03:43:07.840Z,3.80
2019-04-07T03:48:02.255Z,3.70
2019-04-07T03:53:17.917Z,3.60
2019-04-07T03:58:21.406Z,3.60
2019-04-07T04:03:21.067Z,3.70
2019-04-07T04:08:22.293Z,3.70
2019-04-07T04:13:20.152Z,3.60
2019-04-07T04:18:12.786Z,3.50
2019-04-07T04:23:05.933Z,3.50
2019-04-07T04:27:59.623Z,3.40
2019-04-07T04:32:52.416Z,3.30
2019-04-07T04:37:51.128Z,3.30
2019-04-07T04:42:39.057Z,3.20
2019-04-07T04:47:31.499Z,3.30
2019-04-07T04:52:24.135Z,3.30
2019-04-07T04:57:16.574Z,3.20
2019-04-07T05:02:10.559Z,3.20
2019-04-07T05:07:04.092Z,3.30
2019-04-07T05:11:56.745Z,3.30
2019-04-07T05:16:49.399Z,3.30
2019-04-07T05:22:01.486Z,3.40
2019-04-07T05:26:54.237Z,3.50
2019-04-07T05:31:46.878Z,3.50
2019-04-07T05:36:40.118Z,3.60
2019-04-07T05:41:33.741Z,3.80
2019-04-07T05:46:28.143Z,3.80
2019-04-07T05:51:21.987Z,4.00
2019-04-07T05:56:14.734Z,4.20
2019-04-07T06:01:07.521Z,4.50
2019-04-07T06:06:00.474Z,4.70
2019-04-07T06:10:56.879Z,5.00
2019-04-07T06:15:49.315Z,5.30
2019-04-07T06:20:44.083Z,5.20
2019-04-07T06:25:40.837Z,5.20
2019-04-07T06:30:31.188Z,5.20
2019-04-07T06:35:23.605Z,5.30
2019-04-07T06:40:20.399Z,5.70
2019-04-07T06:45:21.135Z,6.30
2019-04-07T06:50:17.997Z,7.00
2019-04-07T06:55:28.678Z,7.50
2019-04-07T07:00:25.537Z,7.80
2019-04-07T07:05:18.975Z,8.20
2019-04-07T07:10:29.609Z,8.60
2019-04-07T07:15:20.700Z,8.90
2019-04-07T07:20:27.633Z,9.40
2019-04-07T07:25:18.143Z,9.50
2019-04-07T07:30:10.635Z,9.70
2019-04-07T07:35:05.095Z,10.10
2019-04-07T07:39:57.326Z,10.60
2019-04-07T07:44:50.357Z,11.00
2019-04-07T07:49:43.798Z,11.90
2019-04-07T07:54:36.762Z,13.10
2019-04-07T07:59:33.149Z,13.60
2019-04-07T08:04:24.890Z,13.90
2019-04-07T08:09:21.447Z,13.90
2019-04-07T08:14:14.437Z,15.70
2019-04-07T08:19:08.407Z,17.10
2019-04-07T08:23:59.053Z,18.50
2019-04-07T08:28:51.416Z,19.40
2019-04-07T08:33:43.519Z,20.00
2019-04-07T08:38:36.652Z,21.00
2019-04-07T08:43:29.682Z,21.20
2019-04-07T08:48:22.501Z,19.40
2019-04-07T08:53:15.141Z,18.10
2019-04-07T08:58:07.800Z,17.50
2019-04-07T09:03:04.981Z,16.80
2019-04-07T09:12:24.915Z,16.50
2019-04-07T09:17:29.330Z,16.80
2019-04-07T09:22:31.596Z,17.50
2019-04-07T09:27:30.008Z,17.90
2019-04-07T09:32:30.289Z,17.40
2019-04-07T09:37:34.004Z,17.10
2019-04-07T09:42:46.227Z,17.80
2019-04-07T09:47:41.385Z,19.20
2019-04-07T09:52:45.101Z,20.30
2019-04-07T09:57:38.995Z,20.80
2019-04-07T10:02:35.482Z,20.30
2019-04-07T10:07:29.478Z,19.80
2019-04-07T10:12:24.804Z,20.10
2019-04-07T10:17:38.357Z,19.80
2019-04-07T10:22:35.318Z,19.30
2019-04-07T10:27:29.595Z,19.00
2019-04-07T10:32:25.567Z,18.70
2019-04-07T10:37:19.645Z,18.30
2019-04-07T10:42:20.153Z,18.00
2019-04-07T10:47:29.374Z,17.90
2019-04-07T10:52:29.064Z,17.80
2019-04-07T10:57:29.335Z,17.60
2019-04-07T11:02:40.357Z,17.40
2019-04-07T11:07:51.346Z,17.20
2019-04-07T11:12:48.961Z,16.90
2019-04-07T11:17:58.184Z,16.90
2019-04-07T11:23:01.906Z,17.00
2019-04-07T11:28:02.577Z,17.30
2019-04-07T11:32:57.564Z,17.60
2019-04-07T11:38:08.213Z,17.80
2019-04-07T11:43:08.776Z,18.00
2019-04-07T11:48:03.452Z,18.40
2019-04-07T11:53:00.593Z,18.70
2019-04-07T11:58:06.608Z,18.60
2019-04-07T12:03:07.162Z,18.30
2019-04-07T12:08:01.753Z,17.70
2019-04-07T12:13:14.372Z,17.10
2019-04-07T12:18:24.810Z,16.70
2019-04-07T12:23:24.184Z,16.30
2019-04-07T12:28:20.401Z,16.20
2019-04-07T12:33:22.971Z,16.10
2019-04-07T12:38:19.401Z,16.10
2019-04-07T12:43:14.165Z,16.10
2019-04-07T12:48:08.106Z,16.10
2019-04-07T12:53:08.069Z,16.30
2019-04-07T12:58:14.860Z,16.50
2019-04-07T13:03:18.136Z,16.70
2019-04-07T13:08:12.517Z,16.80
2019-04-07T13:13:17.043Z,17.00
2019-04-07T13:18:24.201Z,17.20
2019-04-07T13:23:31.501Z,17.20
2019-04-07T13:28:26.066Z,17.40
2019-04-07T13:33:29.642Z,17.50
2019-04-07T13:38:33.871Z,17.40
2019-04-07T13:43:45.672Z,17.30
2019-04-07T13:48:40.084Z,17.10
2019-04-07T13:53:43.234Z,17.10
2019-04-07T13:58:37.421Z,17.00
2019-04-07T14:03:40.649Z,16.80
2019-04-07T14:08:43.950Z,16.70
2019-04-07T14:13:54.506Z,16.70
2019-04-07T14:19:05.522Z,16.80
2019-04-07T14:23:59.440Z,16.80
2019-04-07T14:28:58.822Z,16.70
2019-04-07T14:33:58.958Z,16.70
2019-04-07T14:38:53.227Z,16.60
2019-04-07T14:43:47.521Z,16.50
2019-04-07T14:48:44.828Z,16.50
2019-04-07T14:53:46.083Z,16.60
2019-04-07T14:58:41.200Z,16.50
2019-04-07T15:03:35.184Z,16.40
2019-04-07T15:13:17.170Z,16.50
2019-04-07T15:18:10.005Z,16.50
2019-04-07T15:23:02.868Z,16.50
2019-04-07T15:27:57.740Z,16.50
2019-04-07T15:32:49.033Z,16.60
2019-04-07T15:37:41.836Z,16.80
2019-04-07T15:42:40.297Z,17.00
2019-04-07T15:47:28.739Z,17.10
2019-04-07T15:52:21.839Z,17.20
2019-04-07T15:57:15.052Z,17.20
2019-04-07T16:02:10.075Z,17.10
2019-04-07T16:07:02.247Z,17.00
2019-04-07T16:11:57.423Z,16.90
2019-04-07T16:16:51.347Z,16.80
2019-04-07T16:21:44.325Z,16.80
2019-04-07T16:26:37.375Z,16.80
2019-04-07T16:31:30.056Z,16.70
2019-04-07T16:36:25.386Z,16.50
2019-04-07T16:41:17.821Z,16.40
2019-04-07T16:46:13.637Z,16.30
2019-04-07T16:51:04.950Z,16.20
2019-04-07T16:55:57.620Z,16.00
2019-04-07T17:00:51.128Z,15.90
2019-04-07T17:05:43.392Z,15.80
2019-04-07T17:10:37.011Z,15.60
2019-04-07T17:15:34.769Z,15.40
2019-04-07T17:20:28.481Z,15.20
2019-04-07T17:25:22.811Z,15.00
2019-04-07T17:30:24.330Z,14.90
2019-04-07T17:35:19.901Z,14.80
2019-04-07T17:40:20.146Z,14.60
2019-04-07T17:45:22.239Z,14.50
2019-04-07T17:50:32.381Z,14.40
2019-04-07T17:55:27.993Z,14.30
2019-04-07T18:00:28.225Z,14.20
2019-04-07T18:05:28.036Z,14.10
2019-04-07T18:10:39.065Z,14.10
2019-04-07T18:15:49.892Z,14.10
2019-04-07T18:20:54.019Z,14.00
2019-04-07T18:26:04.180Z,14.00
2019-04-07T18:31:06.466Z,13.80
2019-04-07T18:36:03.345Z,13.80
2019-04-07T18:41:10.761Z,13.70
2019-04-07T18:46:20.345Z,13.60
2019-04-07T18:51:20.494Z,13.50
2019-04-07T18:56:15.277Z,13.40
2019-04-07T19:01:22.270Z,13.40
2019-04-07T19:06:18.948Z,13.30
2019-04-07T19:11:17.072Z,13.10
2019-04-07T19:16:13.497Z,13.00
2019-04-07T19:21:11.466Z,12.90
2019-04-07T19:26:07.618Z,12.80
2019-04-07T19:31:06.907Z,12.70
2019-04-07T19:36:00.702Z,12.50
2019-04-07T19:41:03.463Z,12.30
2019-04-07T19:45:58.527Z,12.20
2019-04-07T19:50:54.912Z,12.10
2019-04-07T19:55:47.553Z,12.00
2019-04-07T20:00:58.882Z,11.90
2019-04-07T20:06:07.113Z,11.90
2019-04-07T20:11:16.328Z,11.80
2019-04-07T20:16:26.322Z,11.80
2019-04-07T20:21:39.224Z,11.80
2019-04-07T20:26:34.801Z,11.70
2019-04-07T20:31:45.099Z,11.60
2019-04-07T20:36:45.789Z,11.50
2019-04-07T20:41:55.365Z,11.40
2019-04-07T20:46:57.647Z,11.30
2019-04-07T20:51:51.174Z,11.30
2019-04-07T20:56:53.254Z,11.20
2019-04-07T21:02:02.520Z,11.20
2019-04-07T21:06:48.211Z,11.20
2019-04-07T21:11:49.331Z,11.20
2019-04-07T21:16:53.081Z,11.20
2019-04-07T21:22:00.038Z,11.20
2019-04-07T21:26:59.440Z,11.20
2019-04-07T21:32:09.962Z,11.20
2019-04-07T21:37:13.346Z,11.20
2019-04-07T21:42:05.154Z,11.20
2019-04-07T21:47:11.936Z,11.20
2019-04-07T21:52:09.094Z,11.20
2019-04-07T21:57:21.410Z,11.20
2019-04-07T22:02:21.717Z,11.20
2019-04-07T22:07:33.560Z,11.10
2019-04-07T22:12:29.829Z,11.10
2019-04-07T22:17:21.333Z,10.90
2019-04-07T22:22:14.290Z,10.90
2019-04-07T22:27:07.213Z,10.80
2019-04-07T22:31:59.879Z,10.70
2019-04-07T22:36:52.077Z,10.60
2019-04-07T22:41:45.005Z,10.60
2019-04-07T22:46:37.909Z,10.70
2019-04-07T22:51:31.379Z,10.70
2019-04-07T22:56:24.372Z,10.60
2019-04-07T23:01:17.223Z,10.60
2019-04-07T23:06:10.610Z,10.60
2019-04-07T23:11:04.291Z,10.50
2019-04-07T23:16:08.139Z,10.50
2019-04-07T23:20:51.521Z,10.40
2019-04-07T23:25:44.380Z,10.40
2019-04-07T23:35:22.244Z,10.40
2019-04-07T23:40:17.002Z,10.40
2019-04-07T23:45:31.571Z,10.40
2019-04-07T23:50:25.153Z,10.40
2019-04-07T23:55:17.914Z,10.40
